createdAt,value
2022-12-17T00:02:03.631Z,-0.71
2022-12-17T00:06:25.659Z,-0.69
2022-12-17T00:10:45.870Z,-0.70
2022-12-17T00:15:06.380Z,-0.75
2022-12-17T00:19:26.693Z,-0.71
2022-12-17T00:23:48.348Z,-0.66
2022-12-17T00:28:13.929Z,-0.68
2022-12-17T00:32:34.435Z,-0.65
2022-12-17T00:36:54.540Z,-0.70
2022-12-17T00:41:17.111Z,-0.72
2022-12-17T00:45:37.468Z,-0.71
2022-12-17T00:49:57.681Z,-0.70
2022-12-17T00:54:18.986Z,-0.75
2022-12-17T00:58:40.688Z,-0.77
2022-12-17T01:03:00.880Z,-0.77
2022-12-17T01:07:21.033Z,-0.71
2022-12-17T01:11:41.335Z,-0.73
2022-12-17T01:16:03.243Z,-0.79
2022-12-17T01:20:25.378Z,-0.79
2022-12-17T01:24:46.113Z,-0.72
2022-12-17T01:29:06.293Z,-0.75
2022-12-17T01:33:29.367Z,-0.79
2022-12-17T01:37:49.698Z,-0.79
2022-12-17T01:42:09.835Z,-0.78
2022-12-17T01:46:30.912Z,-0.77
2022-12-17T01:50:55.461Z,-0.72
2022-12-17T01:55:12.270Z,-0.78
2022-12-17T01:59:33.396Z,-0.76
2022-12-17T02:03:53.674Z,-0.71
2022-12-17T02:08:24.778Z,-0.74
2022-12-17T02:12:55.080Z,-0.96
2022-12-17T02:17:20.990Z,-1.03
2022-12-17T02:21:49.679Z,-0.98
2022-12-17T02:26:24.047Z,-1.00
2022-12-17T02:30:47.747Z,-1.01
2022-12-17T02:35:08.705Z,-0.96
2022-12-17T02:39:29.810Z,-1.01
2022-12-17T02:43:52.106Z,-1.06
2022-12-17T02:48:15.094Z,-1.01
2022-12-17T02:52:39.398Z,-0.99
2022-12-17T02:56:59.735Z,-0.93
2022-12-17T03:01:20.134Z,-0.96
2022-12-17T03:05:45.785Z,-0.90
2022-12-17T03:10:06.134Z,-1.01
2022-12-17T03:14:35.310Z,-1.05
2022-12-17T03:18:55.540Z,-1.04
2022-12-17T03:23:22.806Z,-1.06
2022-12-17T03:27:43.512Z,-1.11
2022-12-17T03:32:06.459Z,-1.15
2022-12-17T03:36:26.701Z,-1.20
2022-12-17T03:40:48.469Z,-1.31
2022-12-17T03:45:08.869Z,-1.40
2022-12-17T03:49:28.954Z,-1.43
2022-12-17T03:53:49.408Z,-1.43
2022-12-17T03:58:10.996Z,-1.41
2022-12-17T04:02:31.566Z,-1.44
2022-12-17T04:06:51.913Z,-1.48
2022-12-17T04:11:12.396Z,-1.48
2022-12-17T04:15:34.035Z,-1.45
2022-12-17T04:19:54.228Z,-1.37
2022-12-17T04:24:14.786Z,-1.43
2022-12-17T04:28:35.154Z,-1.49
2022-12-17T04:32:56.939Z,-1.56
2022-12-17T04:37:17.513Z,-1.58
2022-12-17T04:41:38.043Z,-1.52
2022-12-17T04:45:58.156Z,-1.53
2022-12-17T04:50:19.766Z,-1.46
2022-12-17T04:54:40.150Z,-1.50
2022-12-17T04:59:00.608Z,-1.53
2022-12-17T05:03:24.131Z,-1.54
2022-12-17T05:07:42.182Z,-1.58
2022-12-17T05:12:02.318Z,-1.55
2022-12-17T05:16:22.832Z,-1.46
2022-12-17T05:20:43.435Z,-1.42
2022-12-17T05:25:05.047Z,-1.43
2022-12-17T05:29:26.170Z,-1.42
2022-12-17T05:33:46.764Z,-1.42
2022-12-17T05:38:06.860Z,-1.47
2022-12-17T05:42:28.399Z,-1.47
2022-12-17T05:46:48.884Z,-1.43
2022-12-17T05:51:09.545Z,-1.43
2022-12-17T05:55:30.234Z,-1.43
2022-12-17T05:59:51.766Z,-1.38
2022-12-17T06:04:12.113Z,-1.35
2022-12-17T06:08:32.270Z,-1.32
2022-12-17T06:12:52.606Z,-1.31
2022-12-17T06:17:14.478Z,-1.44
2022-12-17T06:21:34.912Z,-1.55
2022-12-17T06:25:54.939Z,-1.61
2022-12-17T06:30:18.619Z,-1.63
2022-12-17T06:34:40.673Z,-1.66
2022-12-17T06:39:01.017Z,-1.69
2022-12-17T06:43:21.270Z,-1.68
2022-12-17T06:47:41.789Z,-1.71
2022-12-17T06:52:03.435Z,-1.66
2022-12-17T06:56:24.295Z,-1.62
2022-12-17T07:00:44.916Z,-1.52
2022-12-17T07:05:05.137Z,-1.45
2022-12-17T07:09:26.857Z,-1.39
2022-12-17T07:13:47.464Z,-1.43
2022-12-17T07:18:13.532Z,-1.45
2022-12-17T07:22:30.145Z,-1.52
2022-12-17T07:26:51.570Z,-1.51
2022-12-17T07:31:14.180Z,-1.54
2022-12-17T07:35:35.061Z,-1.61
2022-12-17T07:39:55.245Z,-1.65
2022-12-17T07:44:17.229Z,-1.62
2022-12-17T07:48:37.576Z,-1.67
2022-12-17T07:52:57.662Z,-1.66
2022-12-17T07:57:18.087Z,-1.67
2022-12-17T08:01:39.690Z,-1.63
2022-12-17T08:05:56.693Z,-1.57
2022-12-17T08:10:16.865Z,-1.49
2022-12-17T08:14:37.472Z,-1.46
2022-12-17T08:18:59.540Z,-1.37
2022-12-17T08:23:20.982Z,-1.34
2022-12-17T08:27:41.328Z,-1.34
2022-12-17T08:32:01.534Z,-1.39
2022-12-17T08:36:23.960Z,-1.45
2022-12-17T08:40:44.586Z,-1.55
2022-12-17T08:45:04.987Z,-1.57
2022-12-17T08:49:25.377Z,-1.52
2022-12-17T08:53:47.005Z,-1.49
2022-12-17T08:58:12.247Z,-1.48
2022-12-17T09:02:32.592Z,-1.46
2022-12-17T09:06:52.675Z,-1.42
2022-12-17T09:11:14.448Z,-1.44
2022-12-17T09:15:35.005Z,-1.42
2022-12-17T09:19:55.323Z,-1.36
2022-12-17T09:24:15.445Z,-1.30
2022-12-17T09:28:36.979Z,-1.26
2022-12-17T09:32:57.373Z,-1.32
2022-12-17T09:37:17.838Z,-1.36
2022-12-17T09:41:44.964Z,-1.27
2022-12-17T09:46:13.623Z,-1.18
2022-12-17T09:50:35.766Z,-1.13
2022-12-17T09:55:01.729Z,-1.08
2022-12-17T09:59:22.965Z,-1.07
2022-12-17T10:03:46.129Z,-1.13
2022-12-17T10:08:07.742Z,-1.10
2022-12-17T10:12:32.527Z,-1.06
2022-12-17T10:16:58.403Z,-1.04
2022-12-17T10:21:21.704Z,-1.08
2022-12-17T10:25:42.077Z,-1.08
2022-12-17T10:30:03.636Z,-1.11
2022-12-17T10:34:26.433Z,-1.12
2022-12-17T10:38:49.915Z,-1.17
2022-12-17T10:43:10.463Z,-1.18
2022-12-17T10:47:32.296Z,-1.20
2022-12-17T10:51:55.178Z,-1.20
2022-12-17T10:56:20.247Z,-1.27
2022-12-17T11:00:49.100Z,-1.17
2022-12-17T11:05:12.246Z,-1.12
2022-12-17T11:09:48.674Z,-1.23
2022-12-17T11:14:14.221Z,-1.33
2022-12-17T11:18:38.894Z,-1.40
2022-12-17T11:23:04.145Z,-1.40
2022-12-17T11:27:28.126Z,-1.35
2022-12-17T11:32:19.123Z,-1.24
2022-12-17T11:36:44.885Z,-1.12
2022-12-17T11:41:10.539Z,-1.06
2022-12-17T11:45:43.284Z,-1.03
2022-12-17T11:50:14.488Z,-0.97
2022-12-17T11:54:40.723Z,-1.08
2022-12-17T11:59:08.418Z,-1.17
2022-12-17T12:03:43.122Z,-1.22
2022-12-17T12:08:13.600Z,-1.23
2022-12-17T12:12:41.372Z,-1.18
2022-12-17T12:17:11.047Z,-1.10
2022-12-17T12:21:49.222Z,-1.03
2022-12-17T12:26:18.733Z,-0.93
2022-12-17T12:30:41.975Z,-0.84
2022-12-17T12:35:04.233Z,-0.90
2022-12-17T12:39:30.668Z,-1.00
2022-12-17T12:43:56.438Z,-0.98
2022-12-17T12:48:21.455Z,-1.02
2022-12-17T12:52:43.970Z,-1.13
2022-12-17T12:57:04.272Z,-1.15
2022-12-17T13:01:26.010Z,-1.10
2022-12-17T13:05:36.606Z,-1.13
2022-12-17T13:09:50.206Z,-1.11
2022-12-17T13:13:56.788Z,-1.12
2022-12-17T13:18:15.011Z,-1.09
2022-12-17T13:22:31.526Z,-1.01
2022-12-17T13:26:45.921Z,-0.93
2022-12-17T13:30:48.661Z,-0.84
2022-12-17T13:35:10.116Z,-0.85
2022-12-17T13:39:28.762Z,-0.96
2022-12-17T13:43:34.399Z,-0.93
2022-12-17T13:47:38.302Z,-0.96
2022-12-17T13:51:42.480Z,-0.89
2022-12-17T13:55:51.534Z,-0.93
2022-12-17T13:59:56.047Z,-0.98
2022-12-17T14:04:08.225Z,-1.02
2022-12-17T14:08:18.591Z,-0.98
2022-12-17T14:12:24.577Z,-0.97
2022-12-17T14:16:27.720Z,-1.00
2022-12-17T14:20:32.374Z,-1.05
2022-12-17T14:24:36.528Z,-1.10
2022-12-17T14:28:50.235Z,-1.11
2022-12-17T14:32:53.550Z,-1.07
2022-12-17T14:36:59.046Z,-1.07
2022-12-17T14:41:30.903Z,-1.10
2022-12-17T14:45:53.855Z,-1.12
2022-12-17T14:50:04.162Z,-1.15
2022-12-17T14:54:17.677Z,-1.17
2022-12-17T14:58:24.202Z,-1.17
2022-12-17T15:02:30.919Z,-1.17
2022-12-17T15:06:33.770Z,-1.19
2022-12-17T15:10:36.555Z,-1.24
2022-12-17T15:14:40.665Z,-1.26
2022-12-17T15:18:43.443Z,-1.31
2022-12-17T15:22:47.011Z,-1.32
2022-12-17T15:26:50.148Z,-1.36
2022-12-17T15:30:54.438Z,-1.31
2022-12-17T15:34:57.227Z,-1.22
2022-12-17T15:39:00.201Z,-1.18
2022-12-17T15:43:15.865Z,-1.15
2022-12-17T15:47:19.951Z,-1.28
2022-12-17T15:51:23.560Z,-1.26
2022-12-17T15:55:26.312Z,-1.21
2022-12-17T15:59:29.071Z,-1.27
2022-12-17T16:03:33.480Z,-1.35
2022-12-17T16:07:37.876Z,-1.30
2022-12-17T16:11:41.034Z,-1.28
2022-12-17T16:15:44.251Z,-1.33
2022-12-17T16:19:48.816Z,-1.37
2022-12-17T16:23:51.802Z,-1.45
2022-12-17T16:27:55.092Z,-1.50
2022-12-17T16:31:58.563Z,-1.47
2022-12-17T16:36:04.166Z,-1.48
2022-12-17T16:40:09.285Z,-1.48
2022-12-17T16:44:13.367Z,-1.51
2022-12-17T16:48:17.462Z,-1.51
2022-12-17T16:52:22.957Z,-1.50
2022-12-17T16:56:29.062Z,-1.48
2022-12-17T17:00:33.040Z,-1.50
2022-12-17T17:04:37.201Z,-1.56
2022-12-17T17:08:42.501Z,-1.69
2022-12-17T17:12:45.998Z,-1.75
2022-12-17T17:16:49.671Z,-1.89
2022-12-17T17:20:53.190Z,-2.01
2022-12-17T17:24:57.855Z,-2.13
2022-12-17T17:29:01.815Z,-2.11
2022-12-17T17:33:05.079Z,-2.13
2022-12-17T17:37:08.453Z,-2.18
2022-12-17T17:41:15.608Z,-2.25
2022-12-17T17:45:18.501Z,-2.33
2022-12-17T17:49:22.179Z,-2.40
2022-12-17T17:53:25.089Z,-2.51
2022-12-17T17:57:29.248Z,-2.54
2022-12-17T18:01:35.394Z,-2.57
2022-12-17T18:05:41.655Z,-2.59
2022-12-17T18:09:44.683Z,-2.61
2022-12-17T18:13:58.213Z,-2.60
2022-12-17T18:18:00.968Z,-2.57
2022-12-17T18:22:03.715Z,-2.63
2022-12-17T18:26:08.736Z,-2.63
2022-12-17T18:30:14.071Z,-2.60
2022-12-17T18:34:25.417Z,-2.64
2022-12-17T18:38:28.218Z,-2.64
2022-12-17T18:43:02.937Z,-2.67
2022-12-17T18:47:08.388Z,-2.79
2022-12-17T18:51:11.103Z,-2.87
2022-12-17T18:55:14.077Z,-2.97
2022-12-17T18:59:25.585Z,-2.99
2022-12-17T19:03:33.084Z,-3.02
2022-12-17T19:07:36.017Z,-3.09
2022-12-17T19:11:43.434Z,-3.23
2022-12-17T19:15:46.515Z,-3.31
2022-12-17T19:19:50.733Z,-3.43
2022-12-17T19:23:57.540Z,-3.47
2022-12-17T19:28:00.271Z,-3.53
2022-12-17T19:32:03.047Z,-3.57
2022-12-17T19:36:09.641Z,-3.54
2022-12-17T19:40:13.679Z,-3.54
2022-12-17T19:44:17.832Z,-3.49
2022-12-17T19:48:20.588Z,-3.43
2022-12-17T19:52:24.614Z,-3.42
2022-12-17T19:56:29.097Z,-3.36
2022-12-17T20:00:31.776Z,-3.33
2022-12-17T20:04:35.661Z,-3.35
2022-12-17T20:08:40.082Z,-3.42
2022-12-17T20:12:44.293Z,-3.48
2022-12-17T20:16:49.106Z,-3.61
2022-12-17T20:20:52.554Z,-3.74
2022-12-17T20:24:58.514Z,-3.74
2022-12-17T20:29:01.470Z,-3.69
2022-12-17T20:33:04.265Z,-3.67
2022-12-17T20:37:07.008Z,-3.71
2022-12-17T20:41:12.790Z,-3.86
2022-12-17T20:45:15.506Z,-3.89
2022-12-17T20:49:18.322Z,-3.90
2022-12-17T20:53:21.341Z,-3.88
2022-12-17T20:57:25.412Z,-3.83
2022-12-17T21:01:29.830Z,-3.83
2022-12-17T21:05:32.888Z,-3.81
2022-12-17T21:09:35.674Z,-3.81
2022-12-17T21:13:39.833Z,-3.80
2022-12-17T21:17:42.696Z,-3.83
2022-12-17T21:21:45.797Z,-3.87
2022-12-17T21:25:48.471Z,-3.90
2022-12-17T21:29:52.608Z,-3.95
2022-12-17T21:33:57.265Z,-4.05
2022-12-17T21:38:01.035Z,-4.10
2022-12-17T21:42:21.506Z,-4.12
2022-12-17T21:46:28.164Z,-4.14
2022-12-17T21:50:31.034Z,-4.17
2022-12-17T21:54:34.762Z,-4.24
2022-12-17T21:58:37.899Z,-4.30
2022-12-17T22:02:42.484Z,-4.37
2022-12-17T22:07:01.388Z,-4.38
2022-12-17T22:11:11.059Z,-4.43
2022-12-17T22:15:13.765Z,-4.52
2022-12-17T22:19:22.432Z,-4.65
2022-12-17T22:23:25.369Z,-4.73
2022-12-17T22:27:28.503Z,-4.96
2022-12-17T22:31:48.895Z,-4.99
2022-12-17T22:38:16.603Z,-5.05
2022-12-17T22:44:31.720Z,-5.05
2022-12-17T22:44:53.334Z,-5.01
2022-12-17T22:48:58.155Z,-4.93
2022-12-17T22:53:02.661Z,-4.89
2022-12-17T22:57:34.555Z,-4.84
2022-12-17T23:01:29.311Z,-4.79
2022-12-17T23:05:32.524Z,-4.77
2022-12-17T23:09:36.571Z,-4.73
2022-12-17T23:13:39.639Z,-4.66
2022-12-17T23:17:42.618Z,-4.68
2022-12-17T23:21:45.333Z,-4.65
2022-12-17T23:25:50.571Z,-4.67
2022-12-17T23:29:53.613Z,-4.67
2022-12-17T23:33:56.583Z,-4.65
2022-12-17T23:37:59.315Z,-4.66
2022-12-17T23:42:03.397Z,-4.63
2022-12-17T23:46:07.165Z,-4.60
2022-12-17T23:50:11.418Z,-4.62
2022-12-17T23:54:14.195Z,-4.64
2022-12-17T23:58:18.279Z,-4.65
